Flight Track Log - Related Links

Times and Time Zones

All times are in EDT time to prevent confusion due to time zone crossing. See the ASQ6041 flight status page for this flight to view local times or setup timezone preferences in your user account.

Time Position Orientation Groundspeed Altitude Reporting Facility
EDT Latitude Longitude Course Direction KTS MPH feet Rate Location/Type
Wed 02:39:00 PM 38.8102 -106.5193 47° Northeast  Level FlightAware Approximate
Wed 02:40:00 PM 38.8750 -106.4303 47° Northeast  Level FlightAware Approximate
Wed 02:40:35 PM 38.4781 -107.0503 287° West 281 323 18,200  Level Denver Center
Wed 02:41:00 PM 38.9427 -106.3500 North  Level FlightAware Approximate
Wed 02:41:37 PM 38.5522 -106.9686 41° Northeast 283 326 19,900  Level Denver Center
Wed 02:42:00 PM 39.0049 -106.2623 51° Northeast  Level FlightAware Approximate
Wed 02:42:39 PM 38.5969 -106.8703 60° Northeast 306 352 20,900  Level Denver Center
Wed 02:43:00 PM 39.0688 -106.1723 44° Northeast  Level FlightAware Approximate
Wed 02:43:41 PM 38.6536 -106.7633 56° Northeast 347 399 21,000  Level Denver Center
Wed 02:44:00 PM 39.1250 -106.0754 61° Northeast  Level FlightAware Approximate
Wed 02:44:43 PM 38.7297 -106.6583 47° Northeast 391 450 21,000  Level Denver Center
Wed 02:45:45 PM 38.8033 -106.5461 50° Northeast 409 471 21,000  Level Denver Center
Wed 02:46:47 PM 38.8539 -106.4108 64° Northeast 421 484 21,000  Level Denver Center
Wed 02:47:49 PM 38.9139 -106.2486 65° Northeast 426 490 21,000  Level Denver Center
Wed 02:48:51 PM 38.9683 -106.1008 65° Northeast 431 496 21,000  Level Denver Center
Wed 02:49:53 PM 39.0189 -105.9619 65° Northeast 431 496 21,000  Level Denver Center
Wed 02:50:55 PM 39.0694 -105.8233 65° Northeast 430 495 21,000  Level Denver Center
Wed 02:51:57 PM 39.1253 -105.6706 65° Northeast 433 498 21,000  Level Denver Center
Wed 02:52:59 PM 39.1717 -105.5417 65° Northeast 436 502 21,000 -97 Level Denver Center
Wed 02:54:01 PM 39.2292 -105.3850 65° Northeast 432 497 20,800 -581 Descending Denver Center
Wed 02:55:03 PM 39.3081 -105.2714 48° Northeast 425 489 19,800 -1,073 Descending Denver Center
Wed 02:56:04 PM 39.4072 -105.1686 39° Northeast 423 487 18,600 -1,235 Descending Denver Center
Wed 02:57:19 PM 39.5172 -105.0583 38° Northeast 406 467 17,000 -1,577 Descending Denver Center
Wed 02:58:21 PM 39.6061 -104.9675 38° Northeast 407 468 15,000 -1,887 Descending Denver Center
Wed 02:59:23 PM 39.6906 -104.8811 38° Northeast 355 409 13,100 -1,645 Descending Denver Center
Wed 03:00:25 PM 39.7708 -104.8408 21° North 319 367 11,600 -1,016 Descending Denver Center
Wed 03:01:27 PM 39.8544 -104.8403 360° North 300 345 11,000 -290 Descending Denver Center
Wed 03:02:29 PM 39.9269 -104.8397 360° North 237 273 11,000  Level Denver Center
Wed 03:03:31 PM 39.9928 -104.8397 360° North 237 273 11,000  Level Denver Center
Wed 03:04:45 PM 40.0642 -104.8403 360° North 239 275 11,000 -701 Level Denver Center
Wed 03:05:48 PM 40.1275 -104.7992 26° Northeast 231 266 9,400 -1,008 Descending Denver Center
Wed 03:06:50 PM 40.1139 -104.7292 104° East 209 241 8,900 -677 Descending Denver Center
Wed 03:07:52 PM 40.0553 -104.6953 156° South 214 246 8,000 -871 Descending Denver Center

Login

Don't have an account? Register now (free) for customized features, flight alerts, and more!